createdAt,value
2022-12-08T00:00:49.363Z,101310.13
2022-12-08T00:03:16.437Z,101311.84
2022-12-08T00:06:06.214Z,101305.97
2022-12-08T00:08:52.056Z,101300.03
2022-12-08T00:11:19.747Z,101294.97
2022-12-08T00:13:46.384Z,101295.84
2022-12-08T00:16:13.296Z,101291.63
2022-12-08T00:18:40.221Z,101279.84
2022-12-08T00:21:06.791Z,101287.44
2022-12-08T00:23:33.324Z,101285.75
2022-12-08T00:26:07.201Z,101296.75
2022-12-08T00:28:35.019Z,101294.22
2022-12-08T00:31:08.844Z,101280.75
2022-12-08T00:33:35.528Z,101279.06
2022-12-08T00:36:10.882Z,101269.78
2022-12-08T00:38:38.630Z,101267.25
2022-12-08T00:41:11.842Z,101258.81
2022-12-08T00:43:38.474Z,101263.03
2022-12-08T00:46:05.324Z,101258.81
2022-12-08T00:48:32.118Z,101247.84
2022-12-08T00:50:58.731Z,101243.59
2022-12-08T00:53:25.227Z,101240.25
2022-12-08T00:55:51.728Z,101244.44
2022-12-08T00:58:18.484Z,101238.53
2022-12-08T01:00:45.356Z,101231.78
2022-12-08T01:03:13.244Z,101230.91
2022-12-08T01:05:39.896Z,101230.88
2022-12-08T01:08:07.361Z,101233.41
2022-12-08T01:10:38.760Z,101231.72
2022-12-08T01:13:05.308Z,101229.19
2022-12-08T01:15:31.844Z,101219.88
2022-12-08T01:17:58.665Z,101232.53
2022-12-08T01:20:25.262Z,101227.50
2022-12-08T01:22:51.798Z,101235.94
2022-12-08T01:25:18.610Z,101232.59
2022-12-08T01:27:45.305Z,101231.75
2022-12-08T01:30:13.331Z,101222.47
2022-12-08T01:32:39.882Z,101219.94
2022-12-08T01:35:06.629Z,101221.66
2022-12-08T01:37:33.216Z,101212.38
2022-12-08T01:39:59.760Z,101225.00
2022-12-08T01:42:26.502Z,101230.94
2022-12-08T01:44:56.625Z,101230.13
2022-12-08T01:47:27.552Z,101241.94
2022-12-08T01:49:54.253Z,101234.31
2022-12-08T01:52:27.266Z,101237.72
2022-12-08T01:54:58.841Z,101226.72
2022-12-08T01:57:39.280Z,101210.72
2022-12-08T02:00:09.364Z,101222.50
2022-12-08T02:02:51.540Z,101216.59
2022-12-08T02:05:21.724Z,101213.19
2022-12-08T02:07:49.358Z,101213.22
2022-12-08T02:10:19.005Z,101209.84
2022-12-08T02:12:46.443Z,101207.31
2022-12-08T02:15:14.789Z,101203.09
2022-12-08T02:18:04.028Z,101201.41
2022-12-08T02:20:37.480Z,101191.28
2022-12-08T02:23:23.935Z,101193.00
2022-12-08T02:26:27.594Z,101186.22
2022-12-08T02:29:16.026Z,101182.88
2022-12-08T02:32:04.252Z,101175.28
2022-12-08T02:34:51.686Z,101172.75
2022-12-08T02:37:24.092Z,101165.97
2022-12-08T02:40:23.049Z,101169.34
2022-12-08T02:42:58.104Z,101171.06
2022-12-08T02:45:43.543Z,101172.75
2022-12-08T02:48:10.917Z,101166.84
2022-12-08T02:50:37.706Z,101164.31
2022-12-08T02:56:04.053Z,101153.34
2022-12-08T02:58:52.370Z,101150.81
2022-12-08T03:01:34.220Z,101139.88
2022-12-08T03:04:47.201Z,101139.03
2022-12-08T03:07:20.177Z,101136.50
2022-12-08T03:09:54.597Z,101149.16
2022-12-08T03:12:32.958Z,101137.34
2022-12-08T03:15:09.009Z,101137.38
2022-12-08T03:17:38.783Z,101139.91
2022-12-08T03:20:12.202Z,101136.50
2022-12-08T03:22:41.308Z,101128.94
2022-12-08T03:25:10.421Z,101140.78
2022-12-08T03:27:37.091Z,101134.84
2022-12-08T03:30:04.513Z,101132.31
2022-12-08T03:32:47.954Z,101128.97
2022-12-08T03:35:17.819Z,101133.19
2022-12-08T03:37:44.501Z,101126.44
2022-12-08T03:40:16.298Z,101119.69
2022-12-08T03:42:42.891Z,101120.53
2022-12-08T03:45:09.760Z,101110.41
2022-12-08T03:47:36.864Z,101106.19
2022-12-08T03:50:04.338Z,101102.81
2022-12-08T03:52:31.044Z,101098.59
2022-12-08T03:54:57.497Z,101092.69
2022-12-08T03:57:24.120Z,101091.81
2022-12-08T03:59:50.660Z,101082.53
2022-12-08T04:02:17.321Z,101087.56
2022-12-08T04:04:44.183Z,101086.72
2022-12-08T04:07:10.745Z,101082.47
2022-12-08T04:09:37.290Z,101090.91
2022-12-08T04:12:04.075Z,101087.53
2022-12-08T04:14:30.575Z,101083.31
2022-12-08T04:16:57.371Z,101090.91
2022-12-08T04:19:23.867Z,101084.13
2022-12-08T04:21:50.449Z,101084.97
2022-12-08T04:24:17.078Z,101080.75
2022-12-08T04:26:43.612Z,101074.03
2022-12-08T04:29:10.233Z,101070.66
2022-12-08T04:31:36.792Z,101074.03
2022-12-08T04:34:03.343Z,101073.19
2022-12-08T04:36:29.868Z,101079.09
2022-12-08T04:38:56.435Z,101069.78
2022-12-08T04:41:22.904Z,101063.91
2022-12-08T04:43:49.440Z,101063.91
2022-12-08T04:46:16.033Z,101062.19
2022-12-08T04:48:42.861Z,101057.13
2022-12-08T04:51:15.852Z,101068.13
2022-12-08T04:53:46.454Z,101065.59
2022-12-08T04:56:18.345Z,101074.88
2022-12-08T04:58:45.502Z,101070.66
2022-12-08T05:01:12.829Z,101061.41
2022-12-08T05:03:39.406Z,101069.84
2022-12-08T05:06:06.253Z,101064.78
2022-12-08T05:08:33.406Z,101067.31
2022-12-08T05:11:08.693Z,101056.34
2022-12-08T05:13:35.233Z,101059.75
2022-12-08T05:16:07.571Z,101060.59
2022-12-08T05:18:34.709Z,101059.75
2022-12-08T05:21:01.950Z,101057.19
2022-12-08T05:23:28.533Z,101054.66
2022-12-08T05:25:55.076Z,101057.22
2022-12-08T05:31:08.534Z,101059.72
2022-12-08T05:33:35.050Z,101058.06
2022-12-08T05:36:01.546Z,101053.84
2022-12-08T05:38:30.737Z,101063.97
2022-12-08T05:40:57.210Z,101060.56
2022-12-08T05:43:23.657Z,101047.88
2022-12-08T05:45:50.322Z,101050.41
2022-12-08T05:48:17.037Z,101047.03
2022-12-08T05:50:48.006Z,101050.38
2022-12-08T05:53:15.666Z,101047.00
2022-12-08T05:55:43.261Z,101043.63
2022-12-08T05:58:19.297Z,101051.22
2022-12-08T06:00:46.680Z,101056.25
2022-12-08T06:03:15.565Z,101043.63
2022-12-08T06:05:43.462Z,101041.09
2022-12-08T06:08:10.707Z,101045.28
2022-12-08T06:10:44.885Z,101045.28
2022-12-08T06:13:11.463Z,101051.16
2022-12-08T06:15:39.500Z,101045.28
2022-12-08T06:18:07.502Z,101044.44
2022-12-08T06:20:34.619Z,101036.88
2022-12-08T06:23:01.257Z,101036.84
2022-12-08T06:25:27.800Z,101035.16
2022-12-08T06:27:54.367Z,101030.94
2022-12-08T06:30:20.877Z,101032.63
2022-12-08T06:32:47.780Z,101038.47
2022-12-08T06:35:14.395Z,101031.75
2022-12-08T06:37:41.198Z,101033.41
2022-12-08T06:40:08.385Z,101036.78
2022-12-08T06:42:43.713Z,101048.59
2022-12-08T06:45:12.144Z,101037.69
2022-12-08T06:47:38.783Z,101047.75
2022-12-08T06:50:06.746Z,101054.47
2022-12-08T06:52:34.902Z,101049.41
2022-12-08T06:55:03.175Z,101050.25
2022-12-08T06:57:29.883Z,101046.88
2022-12-08T06:59:56.424Z,101046.00
2022-12-08T07:02:23.812Z,101048.53
2022-12-08T07:04:51.431Z,101051.06
2022-12-08T07:07:18.036Z,101046.81
2022-12-08T07:09:44.607Z,101046.00
2022-12-08T07:12:11.238Z,101045.94
2022-12-08T07:14:37.832Z,101044.25
2022-12-08T07:17:04.776Z,101045.06
2022-12-08T07:19:31.352Z,101041.69
2022-12-08T07:21:57.925Z,101040.00
2022-12-08T07:24:24.704Z,101045.88
2022-12-08T07:26:51.334Z,101041.66
2022-12-08T07:29:23.059Z,101042.47
2022-12-08T07:31:52.509Z,101039.13
2022-12-08T07:34:19.123Z,101035.72
2022-12-08T07:36:45.778Z,101044.16
2022-12-08T07:39:12.404Z,101043.28
2022-12-08T07:41:38.996Z,101054.22
2022-12-08T07:44:05.528Z,101044.94
2022-12-08T07:46:32.020Z,101039.06
2022-12-08T07:48:58.894Z,101049.13
2022-12-08T07:51:25.503Z,101044.94
2022-12-08T07:53:54.632Z,101044.09
2022-12-08T07:56:22.504Z,101043.22
2022-12-08T07:58:49.342Z,101047.41
2022-12-08T08:01:25.470Z,101044.88
2022-12-08T08:03:52.615Z,101046.56
2022-12-08T08:06:19.224Z,101048.22
2022-12-08T08:08:46.064Z,101047.41
2022-12-08T08:11:17.422Z,101049.97
2022-12-08T08:13:47.252Z,101045.69
2022-12-08T08:16:13.874Z,101045.69
2022-12-08T08:18:41.056Z,101049.03
2022-12-08T08:21:43.315Z,101053.28
2022-12-08T08:23:54.391Z,101050.75
2022-12-08T08:26:20.871Z,101055.78
2022-12-08T08:28:48.239Z,101054.97
2022-12-08T08:31:14.796Z,101054.16
2022-12-08T08:33:41.438Z,101066.81
2022-12-08T08:36:09.172Z,101057.56
2022-12-08T08:38:39.310Z,101057.56
2022-12-08T08:41:10.650Z,101059.28
2022-12-08T08:43:38.822Z,101068.50
2022-12-08T08:46:09.253Z,101071.84
2022-12-08T08:48:36.329Z,101073.53
2022-12-08T08:51:11.691Z,101067.59
2022-12-08T08:53:38.616Z,101074.34
2022-12-08T08:56:13.745Z,101070.97
2022-12-08T08:58:41.125Z,101076.03
2022-12-08T09:01:08.310Z,101065.94
2022-12-08T09:03:34.914Z,101065.09
2022-12-08T09:06:01.651Z,101060.91
2022-12-08T09:08:31.570Z,101055.84
2022-12-08T09:10:58.208Z,101053.34
2022-12-08T09:13:24.880Z,101052.53
2022-12-08T09:15:51.651Z,101062.69
2022-12-08T09:18:19.781Z,101052.56
2022-12-08T09:20:46.585Z,101050.94
2022-12-08T09:23:13.304Z,101060.22
2022-12-08T09:25:39.871Z,101056.88
2022-12-08T09:28:08.587Z,101058.56
2022-12-08T09:30:35.125Z,101056.06
2022-12-08T09:33:01.671Z,101053.53
2022-12-08T09:35:28.243Z,101061.13
2022-12-08T09:37:55.031Z,101046.81
2022-12-08T09:40:24.090Z,101050.19
2022-12-08T09:42:58.206Z,101051.88
2022-12-08T09:45:30.000Z,101054.47
2022-12-08T09:48:06.795Z,101047.72
2022-12-08T09:50:40.893Z,101052.75
2022-12-08T09:53:16.950Z,101051.94
2022-12-08T09:55:50.876Z,101054.47
2022-12-08T09:58:47.640Z,101060.34
2022-12-08T10:01:14.852Z,101062.06
2022-12-08T10:03:44.818Z,101064.63
2022-12-08T10:06:23.335Z,101060.38
2022-12-08T10:09:01.823Z,101057.00
2022-12-08T10:11:39.756Z,101057.88
2022-12-08T10:14:12.225Z,101060.41
2022-12-08T10:16:48.429Z,101054.50
2022-12-08T10:19:21.730Z,101051.13
2022-12-08T10:21:49.001Z,101052.81
2022-12-08T10:24:41.140Z,101056.19
2022-12-08T10:27:12.652Z,101045.28
2022-12-08T10:29:40.557Z,101046.97
2022-12-08T10:32:18.150Z,101049.50
2022-12-08T10:35:12.169Z,101043.63
2022-12-08T10:37:39.681Z,101046.16
2022-12-08T10:40:09.208Z,101041.09
2022-12-08T10:42:40.137Z,101045.31
2022-12-08T10:45:09.672Z,101036.03
2022-12-08T10:47:42.503Z,101037.72
2022-12-08T10:50:22.831Z,101036.06
2022-12-08T10:52:58.020Z,101031.84
2022-12-08T10:55:24.715Z,101036.06
2022-12-08T10:57:51.402Z,101032.66
2022-12-08T11:00:21.328Z,101032.66
2022-12-08T11:02:54.805Z,101028.44
2022-12-08T11:05:23.464Z,101038.56
2022-12-08T11:07:53.027Z,101030.94
2022-12-08T11:10:26.761Z,101039.34
2022-12-08T11:12:53.285Z,101035.97
2022-12-08T11:15:20.331Z,101037.69
2022-12-08T11:18:03.852Z,101037.66
2022-12-08T11:20:39.255Z,101036.81
2022-12-08T11:23:20.194Z,101039.38
2022-12-08T11:25:47.268Z,101031.78
2022-12-08T11:28:14.346Z,101024.16
2022-12-08T11:30:50.677Z,101020.75
2022-12-08T11:33:21.714Z,101019.06
2022-12-08T11:35:54.436Z,101006.38
2022-12-08T11:38:23.865Z,100997.97
2022-12-08T11:40:54.207Z,100998.00
2022-12-08T11:43:35.782Z,100992.13
2022-12-08T11:46:09.881Z,100991.28
2022-12-08T11:48:51.809Z,100987.06
2022-12-08T11:51:29.234Z,100984.56
2022-12-08T11:54:18.743Z,100987.09
2022-12-08T11:56:49.167Z,100977.84
2022-12-08T11:59:44.431Z,100969.44
2022-12-08T12:02:18.111Z,100970.25
2022-12-08T12:05:05.304Z,100969.44
2022-12-08T12:07:52.190Z,100965.19
2022-12-08T12:10:18.628Z,100963.53
2022-12-08T12:13:03.967Z,100966.94
2022-12-08T12:16:03.062Z,100964.41
2022-12-08T12:18:50.960Z,100955.13
2022-12-08T12:21:22.772Z,100961.06
2022-12-08T12:23:56.545Z,100952.66
2022-12-08T12:26:26.242Z,100956.84
2022-12-08T12:28:55.419Z,100954.31
2022-12-08T12:31:26.434Z,100949.25
2022-12-08T12:33:57.002Z,100950.09
2022-12-08T12:36:25.494Z,100949.22
2022-12-08T12:39:09.369Z,100954.28
2022-12-08T12:41:41.654Z,100947.56
2022-12-08T12:44:14.086Z,100939.94
2022-12-08T12:47:01.714Z,100940.81
2022-12-08T12:49:40.524Z,100939.13
2022-12-08T12:52:10.242Z,100941.69
2022-12-08T12:54:41.907Z,100945.06
2022-12-08T12:57:08.440Z,100945.09
2022-12-08T12:59:55.243Z,100945.06
2022-12-08T13:02:34.580Z,100944.22
2022-12-08T13:05:09.557Z,100936.66
2022-12-08T13:07:44.920Z,100935.78
2022-12-08T13:10:33.202Z,100932.41
2022-12-08T13:13:18.033Z,100944.25
2022-12-08T13:16:18.449Z,100938.31
2022-12-08T13:18:51.163Z,100933.25
2022-12-08T13:21:23.210Z,100934.13
2022-12-08T13:24:14.264Z,100937.47
2022-12-08T13:26:45.978Z,100924.81
2022-12-08T13:29:23.989Z,100939.16
2022-12-08T13:31:57.686Z,100936.63
2022-12-08T13:34:48.470Z,100930.69
2022-12-08T13:37:24.015Z,100919.72
2022-12-08T13:40:09.450Z,100920.56
2022-12-08T13:42:43.845Z,100917.22
2022-12-08T13:45:36.222Z,100924.81
2022-12-08T13:48:26.599Z,100923.09
2022-12-08T13:57:10.071Z,100916.34
2022-12-08T13:59:45.295Z,100916.34
2022-12-08T14:02:18.979Z,100922.25
2022-12-08T14:07:38.861Z,100922.28
2022-12-08T14:10:14.251Z,100926.47
2022-12-08T14:12:45.845Z,100928.16
2022-12-08T14:15:15.389Z,100930.69
2022-12-08T14:17:52.167Z,100928.19
2022-12-08T14:20:26.182Z,100925.66
2022-12-08T14:22:53.697Z,100929.84
2022-12-08T14:25:21.335Z,100928.16
2022-12-08T14:27:48.848Z,100930.69
2022-12-08T14:30:36.249Z,100929.84
2022-12-08T14:33:04.795Z,100931.53
2022-12-08T14:35:36.931Z,100928.16
2022-12-08T14:38:13.779Z,100926.47
2022-12-08T14:40:42.884Z,100929.84
2022-12-08T14:43:09.418Z,100934.03
2022-12-08T14:45:40.862Z,100936.59
2022-12-08T14:48:27.704Z,100936.59
2022-12-08T14:50:57.744Z,100926.44
2022-12-08T14:53:25.581Z,100926.44
2022-12-08T14:55:52.334Z,100928.13
2022-12-08T14:58:25.746Z,100932.34
2022-12-08T15:00:56.834Z,100924.75
2022-12-08T15:03:24.394Z,100932.34
2022-12-08T15:05:53.083Z,100915.47
2022-12-08T15:08:20.189Z,100918.84
2022-12-08T15:10:48.284Z,100919.66
2022-12-08T15:13:16.336Z,100918.84
2022-12-08T15:15:53.720Z,100920.50
2022-12-08T15:18:36.916Z,100920.50
2022-12-08T15:21:09.099Z,100923.88
2022-12-08T15:23:44.998Z,100923.00
2022-12-08T15:26:22.143Z,100919.63
2022-12-08T15:28:48.613Z,100907.81
2022-12-08T15:31:15.983Z,100912.06
2022-12-08T15:33:42.561Z,100916.25
2022-12-08T15:36:09.759Z,100910.34
2022-12-08T15:38:37.104Z,100906.13
2022-12-08T15:41:04.297Z,100914.56
2022-12-08T15:43:31.923Z,100917.09
2022-12-08T15:46:00.054Z,100917.94
2022-12-08T15:48:30.721Z,100923.88
2022-12-08T15:50:58.123Z,100932.28
2022-12-08T15:53:24.708Z,100931.44
2022-12-08T15:56:26.387Z,100938.19
2022-12-08T15:58:53.661Z,100928.88
2022-12-08T16:01:21.070Z,100920.47
2022-12-08T16:09:33.102Z,100924.63
2022-12-08T16:12:18.618Z,100920.41
2022-12-08T16:17:33.114Z,100926.25
2022-12-08T16:20:00.338Z,100928.78
2022-12-08T16:22:54.460Z,100922.84
2022-12-08T16:25:20.017Z,100922.84
2022-12-08T16:28:01.184Z,100916.97
2022-12-08T16:30:30.031Z,100917.75
2022-12-08T16:32:56.478Z,100908.47
2022-12-08T16:35:25.137Z,100900.06
2022-12-08T16:37:53.035Z,100905.94
2022-12-08T16:40:19.643Z,100907.59
2022-12-08T16:42:48.421Z,100911.81
2022-12-08T16:45:22.553Z,100908.41
2022-12-08T16:47:55.511Z,100907.53
2022-12-08T16:50:23.521Z,100907.53
2022-12-08T16:52:55.828Z,100909.25
2022-12-08T16:55:22.426Z,100905.88
2022-12-08T16:57:49.265Z,100908.41
2022-12-08T17:00:18.895Z,100906.72
2022-12-08T17:02:45.924Z,100904.19
2022-12-08T17:05:15.134Z,100918.53
2022-12-08T17:07:47.037Z,100921.03
2022-12-08T17:10:18.481Z,100917.66
2022-12-08T17:12:45.803Z,100917.66
2022-12-08T17:15:15.844Z,100913.44
2022-12-08T17:17:42.991Z,100914.31
2022-12-08T17:20:14.021Z,100910.94
2022-12-08T17:22:41.070Z,100910.06
2022-12-08T17:25:08.043Z,100903.31
2022-12-08T17:27:36.672Z,100916.75
2022-12-08T17:30:04.722Z,100914.19
2022-12-08T17:32:31.565Z,100905.72
2022-12-08T17:34:58.173Z,100909.91
2022-12-08T17:37:24.829Z,100904.78
2022-12-08T17:39:51.309Z,100899.72
2022-12-08T17:42:17.792Z,100908.94
2022-12-08T17:44:46.605Z,100912.28
2022-12-08T17:47:13.216Z,100923.19
2022-12-08T17:49:39.715Z,100907.16
2022-12-08T17:52:10.588Z,100912.22
2022-12-08T17:54:37.521Z,100907.16
2022-12-08T17:57:04.657Z,100907.16
2022-12-08T17:59:31.288Z,100910.53
2022-12-08T18:01:58.639Z,100903.81
2022-12-08T18:04:26.708Z,100912.22
2022-12-08T18:06:54.275Z,100905.47
2022-12-08T18:09:21.432Z,100905.47
2022-12-08T18:11:48.094Z,100908.81
2022-12-08T18:14:15.359Z,100903.75
2022-12-08T18:16:44.915Z,100906.25
2022-12-08T18:19:13.026Z,100914.66
2022-12-08T18:21:41.440Z,100912.16
2022-12-08T18:24:09.663Z,100907.94
2022-12-08T18:26:36.510Z,100904.59
2022-12-08T18:29:03.699Z,100902.06
2022-12-08T18:31:30.384Z,100906.28
2022-12-08T18:33:56.952Z,100906.28
2022-12-08T18:36:25.300Z,100899.53
2022-12-08T18:38:54.397Z,100897.00
2022-12-08T18:41:26.137Z,100896.13
2022-12-08T18:43:54.504Z,100899.44
2022-12-08T18:46:21.912Z,100910.34
2022-12-08T18:48:50.929Z,100914.56
2022-12-08T18:51:19.744Z,100917.91
2022-12-08T18:53:46.836Z,100919.56
2022-12-08T18:56:39.661Z,100923.78
2022-12-08T18:59:08.865Z,100921.25
2022-12-08T19:01:37.747Z,100926.28
2022-12-08T19:06:53.409Z,100927.13
2022-12-08T19:09:26.099Z,100919.56
2022-12-08T19:11:52.989Z,100924.63
2022-12-08T19:14:24.147Z,100924.66
2022-12-08T19:16:54.133Z,100931.44
2022-12-08T19:19:21.496Z,100927.25
2022-12-08T19:21:48.050Z,100927.28
2022-12-08T19:24:14.680Z,100929.00
2022-12-08T19:26:42.091Z,100923.13
2022-12-08T19:29:09.448Z,100923.97
2022-12-08T19:31:36.358Z,100920.63
2022-12-08T19:34:03.120Z,100924.03
2022-12-08T19:36:35.403Z,100925.72
2022-12-08T19:39:21.781Z,100933.31
2022-12-08T19:42:06.988Z,100931.66
2022-12-08T19:44:52.345Z,100931.66
2022-12-08T19:47:28.168Z,100923.28
2022-12-08T19:50:15.589Z,100931.72
2022-12-08T19:52:42.729Z,100931.72
2022-12-08T19:55:09.780Z,100932.56
2022-12-08T19:57:36.581Z,100927.56
2022-12-08T20:00:04.608Z,100927.56
2022-12-08T20:02:31.334Z,100939.38
2022-12-08T20:04:58.139Z,100930.09
2022-12-08T20:07:24.945Z,100940.22
2022-12-08T20:09:51.567Z,100935.16
2022-12-08T20:12:18.121Z,100940.25
2022-12-08T20:14:46.180Z,100936.91
2022-12-08T20:17:13.138Z,100951.19
2022-12-08T20:19:39.762Z,100946.19
2022-12-08T20:22:08.427Z,100949.56
2022-12-08T20:24:36.028Z,100953.78
2022-12-08T20:27:02.779Z,100940.34
2022-12-08T20:29:29.308Z,100946.25
2022-12-08T20:31:55.932Z,100945.38
2022-12-08T20:34:22.566Z,100942.84
2022-12-08T20:36:49.462Z,100938.63
2022-12-08T20:39:18.300Z,100947.91
2022-12-08T20:41:46.464Z,100943.69
2022-12-08T20:44:13.272Z,100949.56
2022-12-08T20:46:42.782Z,100950.38
2022-12-08T20:49:13.231Z,100951.25
2022-12-08T20:51:40.059Z,100952.13
2022-12-08T20:54:06.756Z,100952.97
2022-12-08T20:56:33.520Z,100952.13
2022-12-08T20:59:00.460Z,100955.47
2022-12-08T21:01:27.214Z,100953.78
2022-12-08T21:03:54.658Z,100959.72
2022-12-08T21:06:23.389Z,100955.50
2022-12-08T21:08:51.727Z,100959.72
2022-12-08T21:11:18.673Z,100955.50
2022-12-08T21:13:46.822Z,100959.72
2022-12-08T21:16:15.059Z,100963.94
2022-12-08T21:18:42.207Z,100966.47
2022-12-08T21:21:12.754Z,100963.97
2022-12-08T21:23:40.198Z,100963.94
2022-12-08T21:26:13.111Z,100966.47
2022-12-08T21:28:40.088Z,100967.31
2022-12-08T21:31:12.482Z,100973.22
2022-12-08T21:33:39.606Z,100965.66
2022-12-08T21:36:12.114Z,100965.66
2022-12-08T21:38:40.561Z,100964.84
2022-12-08T21:41:10.699Z,100961.47
2022-12-08T21:43:37.768Z,100958.09
2022-12-08T21:46:04.709Z,100963.13
2022-12-08T21:48:31.381Z,100966.53
2022-12-08T21:51:04.358Z,100967.34
2022-12-08T21:53:31.097Z,100966.53
2022-12-08T21:55:57.788Z,100969.06
2022-12-08T21:58:26.530Z,100964.84
2022-12-08T22:00:53.594Z,100973.28
2022-12-08T22:03:20.741Z,100967.41
2022-12-08T22:05:49.642Z,100969.94
2022-12-08T22:08:16.475Z,100978.41
2022-12-08T22:10:48.899Z,100969.13
2022-12-08T22:13:15.804Z,100968.28
2022-12-08T22:15:42.603Z,100975.00
2022-12-08T22:18:09.627Z,100974.16
2022-12-08T22:20:40.861Z,100969.94
2022-12-08T22:23:10.274Z,100971.66
2022-12-08T22:25:36.880Z,100977.56
2022-12-08T22:28:03.955Z,100977.59
2022-12-08T22:30:38.876Z,100979.28
2022-12-08T22:33:05.786Z,100976.75
2022-12-08T22:35:32.357Z,100977.56
2022-12-08T22:37:58.973Z,100969.16
2022-12-08T22:40:25.466Z,100960.72
2022-12-08T22:42:52.242Z,100964.94
2022-12-08T22:45:18.906Z,100961.59
2022-12-08T22:47:45.636Z,100959.84
2022-12-08T22:50:13.536Z,100956.47
2022-12-08T22:52:42.822Z,100953.91
2022-12-08T22:55:09.615Z,100954.72
2022-12-08T22:57:36.518Z,100959.78
2022-12-08T23:00:06.024Z,100960.56
2022-12-08T23:02:33.038Z,100954.66
2022-12-08T23:04:59.806Z,100952.13
2022-12-08T23:07:26.522Z,100955.44
2022-12-08T23:09:56.486Z,100956.25
2022-12-08T23:12:23.213Z,100956.25
2022-12-08T23:14:49.992Z,100962.97
2022-12-08T23:17:16.628Z,100967.97
2022-12-08T23:19:43.238Z,100968.81
2022-12-08T23:22:09.805Z,100959.50
2022-12-08T23:24:36.323Z,100957.81
2022-12-08T23:27:03.171Z,100962.88
2022-12-08T23:29:29.909Z,100962.03
2022-12-08T23:31:56.653Z,100961.25
2022-12-08T23:34:23.546Z,100953.72
2022-12-08T23:36:50.316Z,100955.41
2022-12-08T23:39:17.224Z,100956.25
2022-12-08T23:41:43.825Z,100958.78
2022-12-08T23:44:12.396Z,100957.13
2022-12-08T23:46:39.247Z,100955.41
2022-12-08T23:49:06.247Z,100951.25
2022-12-08T23:51:33.102Z,100955.47
2022-12-08T23:53:59.854Z,100957.19
2022-12-08T23:56:30.282Z,100941.22
2022-12-08T23:58:57.568Z,100949.59
